DLH6RT EDDF-LJLJ
Flight info
| Callsign | DLH6RT |
|---|---|
| Flight time | 1h 1m |
| Altitude | 31000 |
| Route | CINDY8S CINDY Z74 LAMPU DCT NOMBO Y161 MAH L173 OTT M867 RADIZ DCT LUMUS LUMUS4L |
| Aircraft | E190/M-SDE2E3GIJ1RWY/LB1 |
Departure
| Time | 2026-04-16 06:50 |
|---|---|
| Airport | Frankfurt Main Airport (EDDF) |
Arrival
| Time | 2026-04-16 07:51 |
|---|---|
| Airport | Ljubljana Jože Pučnik Airport (LJLJ) |
| Time | Latitude | Longitude | Altitude | Speed | Heading |
|---|---|---|---|---|---|
| 2026-04-16 06:13 | 50.04895 | 8.56993 | 359 ft | 0 kts | 295° |
| 2026-04-16 06:37 | 50.04887 | 8.57020 | 357 ft | 4 kts | 292° |
| 2026-04-16 06:38 | 50.04876 | 8.57058 | 355 ft | 4 kts | 294° |
| 2026-04-16 06:38 | 50.04872 | 8.57090 | 361 ft | 1 kts | 249° |
| 2026-04-16 06:38 | 50.04866 | 8.57078 | 362 ft | 4 kts | 228° |
| 2026-04-16 06:38 | 50.04842 | 8.57062 | 363 ft | 4 kts | 198° |
| 2026-04-16 06:39 | 50.04817 | 8.57049 | 355 ft | 4 kts | 199° |
| 2026-04-16 06:39 | 50.04795 | 8.57035 | 355 ft | 1 kts | 205° |
| 2026-04-16 06:42 | 50.04781 | 8.57025 | 358 ft | 5 kts | 205° |
| 2026-04-16 06:42 | 50.04732 | 8.56990 | 355 ft | 10 kts | 205° |
| 2026-04-16 06:42 | 50.04667 | 8.56944 | 357 ft | 11 kts | 203° |
| 2026-04-16 06:42 | 50.04589 | 8.56906 | 355 ft | 12 kts | 193° |
| 2026-04-16 06:43 | 50.04516 | 8.56879 | 358 ft | 11 kts | 193° |
| 2026-04-16 06:43 | 50.04449 | 8.56811 | 362 ft | 13 kts | 240° |
| 2026-04-16 06:43 | 50.04413 | 8.56664 | 361 ft | 16 kts | 249° |
| 2026-04-16 06:43 | 50.04372 | 8.56491 | 363 ft | 18 kts | 250° |
| 2026-04-16 06:44 | 50.04325 | 8.56295 | 360 ft | 20 kts | 249° |
| 2026-04-16 06:44 | 50.04275 | 8.56087 | 354 ft | 19 kts | 249° |
| 2026-04-16 06:44 | 50.04228 | 8.55890 | 355 ft | 20 kts | 250° |
| 2026-04-16 06:44 | 50.04178 | 8.55680 | 359 ft | 20 kts | 249° |
| 2026-04-16 06:45 | 50.04128 | 8.55473 | 350 ft | 21 kts | 250° |
| 2026-04-16 06:45 | 50.04076 | 8.55258 | 357 ft | 21 kts | 249° |
| 2026-04-16 06:45 | 50.04024 | 8.55039 | 359 ft | 22 kts | 250° |
| 2026-04-16 06:45 | 50.03968 | 8.54803 | 355 ft | 24 kts | 249° |
| 2026-04-16 06:46 | 50.03908 | 8.54554 | 347 ft | 24 kts | 249° |
| 2026-04-16 06:46 | 50.03845 | 8.54336 | 348 ft | 20 kts | 235° |
| 2026-04-16 06:46 | 50.03785 | 8.54158 | 353 ft | 19 kts | 250° |
| 2026-04-16 06:46 | 50.03737 | 8.53960 | 342 ft | 21 kts | 249° |
| 2026-04-16 06:47 | 50.03685 | 8.53742 | 340 ft | 23 kts | 249° |
| 2026-04-16 06:47 | 50.03627 | 8.53512 | 339 ft | 20 kts | 250° |
| 2026-04-16 06:47 | 50.03575 | 8.53296 | 334 ft | 22 kts | 249° |
| 2026-04-16 06:47 | 50.03523 | 8.53079 | 336 ft | 20 kts | 250° |
| 2026-04-16 06:48 | 50.03476 | 8.52889 | 333 ft | 18 kts | 246° |
| 2026-04-16 06:48 | 50.03428 | 8.52711 | 332 ft | 16 kts | 249° |
| 2026-04-16 06:48 | 50.03394 | 8.52601 | 333 ft | 8 kts | 217° |
| 2026-04-16 06:48 | 50.03361 | 8.52594 | 331 ft | 2 kts | 180° |
| 2026-04-16 06:49 | 50.03360 | 8.52594 | 334 ft | 0 kts | 180° |
| 2026-04-16 06:49 | 50.03304 | 8.52594 | 330 ft | 35 kts | 180° |
| 2026-04-16 06:49 | 50.02795 | 8.52599 | 330 ft | 110 kts | 179° |
| 2026-04-16 06:49 | 50.01833 | 8.52595 | 515 ft | 155 kts | 181° |
| 2026-04-16 06:50 | 50.00699 | 8.52594 | 1216 ft | 173 kts | 181° |
| 2026-04-16 06:50 | 49.99483 | 8.52632 | 2151 ft | 172 kts | 179° |
| 2026-04-16 06:50 | 49.98231 | 8.52721 | 2696 ft | 196 kts | 178° |
| 2026-04-16 06:50 | 49.96856 | 8.53254 | 3284 ft | 217 kts | 153° |
| 2026-04-16 06:51 | 49.95747 | 8.54993 | 3972 ft | 237 kts | 123° |
| 2026-04-16 06:51 | 49.94931 | 8.57243 | 4974 ft | 241 kts | 120° |
| 2026-04-16 06:51 | 49.94200 | 8.59643 | 5682 ft | 252 kts | 108° |
| 2026-04-16 06:51 | 49.93922 | 8.62432 | 6313 ft | 270 kts | 95° |
| 2026-04-16 06:52 | 49.93838 | 8.65398 | 6965 ft | 278 kts | 92° |
| 2026-04-16 06:52 | 49.93621 | 8.68413 | 7606 ft | 284 kts | 108° |
| 2026-04-16 06:52 | 49.92600 | 8.70993 | 8247 ft | 283 kts | 139° |
| 2026-04-16 06:52 | 49.91026 | 8.72850 | 8912 ft | 285 kts | 147° |
| 2026-04-16 06:53 | 49.89384 | 8.74556 | 9549 ft | 289 kts | 146° |
| 2026-04-16 06:53 | 49.87960 | 8.76773 | 10188 ft | 296 kts | 124° |
| 2026-04-16 06:53 | 49.86905 | 8.79593 | 10687 ft | 313 kts | 119° |
| 2026-04-16 06:53 | 49.85877 | 8.82688 | 11132 ft | 333 kts | 119° |
| 2026-04-16 06:54 | 49.84732 | 8.85928 | 11577 ft | 351 kts | 121° |
| 2026-04-16 06:54 | 49.83519 | 8.89248 | 12343 ft | 357 kts | 121° |
| 2026-04-16 06:54 | 49.82231 | 8.92568 | 13185 ft | 361 kts | 129° |
| 2026-04-16 06:54 | 49.80570 | 8.95486 | 14069 ft | 362 kts | 136° |
| 2026-04-16 06:55 | 49.78794 | 8.98266 | 14699 ft | 365 kts | 137° |
| 2026-04-16 06:55 | 49.76981 | 9.01063 | 15275 ft | 369 kts | 137° |
| 2026-04-16 06:55 | 49.75156 | 9.03898 | 15817 ft | 374 kts | 137° |
| 2026-04-16 06:55 | 49.73312 | 9.06771 | 16370 ft | 379 kts | 137° |
| 2026-04-16 06:56 | 49.71451 | 9.09686 | 16914 ft | 382 kts | 137° |
| 2026-04-16 06:56 | 49.69572 | 9.12617 | 17467 ft | 385 kts | 137° |
| 2026-04-16 06:56 | 49.67678 | 9.15569 | 17993 ft | 389 kts | 137° |
| 2026-04-16 06:56 | 49.65769 | 9.18547 | 18538 ft | 392 kts | 137° |
| 2026-04-16 06:57 | 49.63836 | 9.21548 | 19096 ft | 395 kts | 137° |
| 2026-04-16 06:57 | 49.61888 | 9.24569 | 19673 ft | 399 kts | 137° |
| 2026-04-16 06:57 | 49.59945 | 9.27580 | 20248 ft | 402 kts | 137° |
| 2026-04-16 06:57 | 49.57938 | 9.30693 | 20798 ft | 406 kts | 137° |
| 2026-04-16 06:58 | 49.55962 | 9.33747 | 21307 ft | 410 kts | 137° |
| 2026-04-16 06:58 | 49.53939 | 9.36866 | 21764 ft | 413 kts | 137° |
| 2026-04-16 06:58 | 49.51894 | 9.40010 | 22199 ft | 417 kts | 137° |
| 2026-04-16 06:58 | 49.49838 | 9.43170 | 22644 ft | 419 kts | 137° |
| 2026-04-16 06:59 | 49.47763 | 9.46354 | 23073 ft | 422 kts | 137° |
| 2026-04-16 06:59 | 49.45676 | 9.49552 | 23455 ft | 425 kts | 138° |
| 2026-04-16 06:59 | 49.43570 | 9.52770 | 23846 ft | 428 kts | 138° |
| 2026-04-16 06:59 | 49.41452 | 9.56003 | 24215 ft | 431 kts | 138° |
| 2026-04-16 07:00 | 49.39316 | 9.59258 | 24626 ft | 433 kts | 138° |
| 2026-04-16 07:00 | 49.37174 | 9.62520 | 25036 ft | 435 kts | 138° |
| 2026-04-16 07:00 | 49.35013 | 9.65797 | 25457 ft | 438 kts | 138° |
| 2026-04-16 07:01 | 49.30664 | 9.72387 | 26264 ft | 441 kts | 138° |
| 2026-04-16 07:01 | 49.28474 | 9.75702 | 26613 ft | 444 kts | 138° |
| 2026-04-16 07:01 | 49.26269 | 9.79033 | 26947 ft | 446 kts | 138° |
| 2026-04-16 07:01 | 49.24055 | 9.82368 | 27276 ft | 448 kts | 138° |
| 2026-04-16 07:02 | 49.21857 | 9.85673 | 27565 ft | 450 kts | 138° |
| 2026-04-16 07:02 | 49.19592 | 9.89073 | 27859 ft | 451 kts | 138° |
| 2026-04-16 07:02 | 49.17345 | 9.92443 | 28149 ft | 453 kts | 139° |
| 2026-04-16 07:02 | 49.15122 | 9.95772 | 28406 ft | 455 kts | 139° |
| 2026-04-16 07:03 | 49.12853 | 9.99163 | 28680 ft | 457 kts | 139° |
| 2026-04-16 07:03 | 49.10550 | 10.02599 | 28949 ft | 458 kts | 138° |
| 2026-04-16 07:03 | 49.08295 | 10.05961 | 29184 ft | 460 kts | 138° |
| 2026-04-16 07:03 | 49.06010 | 10.09362 | 29531 ft | 459 kts | 138° |
| 2026-04-16 07:04 | 49.03690 | 10.12712 | 29865 ft | 458 kts | 140° |
| 2026-04-16 07:04 | 49.01358 | 10.16001 | 30199 ft | 457 kts | 140° |
| 2026-04-16 07:04 | 48.99029 | 10.19288 | 30521 ft | 456 kts | 140° |
| 2026-04-16 07:04 | 48.96710 | 10.22565 | 30825 ft | 455 kts | 140° |
| 2026-04-16 07:05 | 48.94387 | 10.25854 | 31107 ft | 455 kts | 140° |
| 2026-04-16 07:05 | 48.92112 | 10.29057 | 31278 ft | 436 kts | 140° |
| 2026-04-16 07:05 | 48.89935 | 10.32117 | 31242 ft | 416 kts | 140° |
| 2026-04-16 07:05 | 48.87851 | 10.35045 | 31241 ft | 403 kts | 140° |
| 2026-04-16 07:06 | 48.85793 | 10.37927 | 31252 ft | 404 kts | 140° |
| 2026-04-16 07:06 | 48.81653 | 10.43775 | 31252 ft | 408 kts | 137° |
| 2026-04-16 07:07 | 48.77768 | 10.50088 | 31292 ft | 410 kts | 135° |
| 2026-04-16 07:07 | 48.73860 | 10.56393 | 31306 ft | 410 kts | 136° |
| 2026-04-16 07:08 | 48.69937 | 10.62671 | 31249 ft | 410 kts | 135° |
| 2026-04-16 07:08 | 48.66023 | 10.68933 | 31257 ft | 409 kts | 135° |
| 2026-04-16 07:09 | 48.62114 | 10.75137 | 31258 ft | 410 kts | 136° |
| 2026-04-16 07:09 | 48.58178 | 10.81369 | 31261 ft | 410 kts | 135° |
| 2026-04-16 07:10 | 48.54257 | 10.87651 | 31258 ft | 410 kts | 135° |
| 2026-04-16 07:10 | 48.50346 | 10.93905 | 31264 ft | 410 kts | 135° |
| 2026-04-16 07:11 | 48.46397 | 11.00126 | 31268 ft | 411 kts | 136° |
| 2026-04-16 07:11 | 48.42419 | 11.06302 | 31267 ft | 411 kts | 136° |
| 2026-04-16 07:12 | 48.38443 | 11.12473 | 31266 ft | 411 kts | 135° |
| 2026-04-16 07:12 | 48.34465 | 11.18644 | 31268 ft | 411 kts | 135° |
| 2026-04-16 07:13 | 48.30508 | 11.24763 | 31270 ft | 410 kts | 135° |
| 2026-04-16 07:13 | 48.26776 | 11.31252 | 31266 ft | 413 kts | 121° |
| 2026-04-16 07:13 | 48.25628 | 11.35185 | 31275 ft | 413 kts | 106° |
| 2026-04-16 07:14 | 48.24902 | 11.39359 | 31292 ft | 413 kts | 102° |
| 2026-04-16 07:14 | 48.23609 | 11.47733 | 31263 ft | 411 kts | 103° |
| 2026-04-16 07:15 | 48.22266 | 11.56071 | 31263 ft | 411 kts | 103° |
| 2026-04-16 07:15 | 48.20898 | 11.64390 | 31266 ft | 411 kts | 103° |
| 2026-04-16 07:16 | 48.19522 | 11.72695 | 31268 ft | 410 kts | 103° |
| 2026-04-16 07:16 | 48.17781 | 11.80802 | 31271 ft | 411 kts | 118° |
| 2026-04-16 07:16 | 48.16126 | 11.84284 | 31277 ft | 411 kts | 134° |
| 2026-04-16 07:17 | 48.14789 | 11.86282 | 31294 ft | 411 kts | 137° |
| 2026-04-16 07:17 | 48.10560 | 11.92056 | 31260 ft | 411 kts | 138° |
| 2026-04-16 07:18 | 48.06334 | 11.97815 | 31263 ft | 411 kts | 138° |
| 2026-04-16 07:18 | 48.02117 | 12.03583 | 31266 ft | 411 kts | 138° |
| 2026-04-16 07:19 | 47.97901 | 12.09350 | 31263 ft | 411 kts | 138° |
| 2026-04-16 07:19 | 47.93712 | 12.15070 | 31265 ft | 411 kts | 138° |
| 2026-04-16 07:20 | 47.89387 | 12.20643 | 31268 ft | 411 kts | 141° |
| 2026-04-16 07:20 | 47.85002 | 12.26100 | 31266 ft | 411 kts | 140° |
| 2026-04-16 07:21 | 47.80635 | 12.31582 | 31266 ft | 410 kts | 140° |
| 2026-04-16 07:21 | 47.76275 | 12.37066 | 31260 ft | 410 kts | 140° |
| 2026-04-16 07:22 | 47.71903 | 12.42528 | 31257 ft | 410 kts | 140° |
| 2026-04-16 07:22 | 47.67531 | 12.47905 | 31253 ft | 410 kts | 140° |
| 2026-04-16 07:23 | 47.63115 | 12.53284 | 31256 ft | 410 kts | 140° |
| 2026-04-16 07:23 | 47.59139 | 12.59307 | 31253 ft | 408 kts | 132° |
| 2026-04-16 07:24 | 47.55275 | 12.65469 | 31253 ft | 408 kts | 132° |
| 2026-04-16 07:24 | 47.51420 | 12.71627 | 31258 ft | 407 kts | 132° |
| 2026-04-16 07:25 | 47.47567 | 12.77777 | 31260 ft | 407 kts | 131° |
| 2026-04-16 07:25 | 47.43708 | 12.83911 | 31254 ft | 408 kts | 131° |
| 2026-04-16 07:26 | 47.39868 | 12.90009 | 31261 ft | 407 kts | 131° |
| 2026-04-16 07:26 | 47.36007 | 12.96126 | 31257 ft | 407 kts | 131° |
| 2026-04-16 07:27 | 47.32148 | 13.02226 | 31262 ft | 407 kts | 131° |
| 2026-04-16 07:27 | 47.28285 | 13.08315 | 31254 ft | 406 kts | 131° |
| 2026-04-16 07:28 | 47.24435 | 13.14382 | 31254 ft | 405 kts | 131° |
| 2026-04-16 07:28 | 47.20572 | 13.20444 | 31262 ft | 406 kts | 131° |
| 2026-04-16 07:29 | 47.16733 | 13.26453 | 31264 ft | 405 kts | 131° |
| 2026-04-16 07:29 | 47.12877 | 13.32482 | 31262 ft | 405 kts | 131° |
| 2026-04-16 07:29 | 47.10941 | 13.35499 | 31137 ft | 407 kts | 131° |
| 2026-04-16 07:30 | 47.08988 | 13.38543 | 30807 ft | 408 kts | 131° |
| 2026-04-16 07:30 | 47.07042 | 13.41572 | 30434 ft | 408 kts | 131° |
| 2026-04-16 07:30 | 47.05092 | 13.44611 | 29826 ft | 410 kts | 131° |
| 2026-04-16 07:30 | 47.03135 | 13.47654 | 29258 ft | 409 kts | 131° |
| 2026-04-16 07:31 | 47.01188 | 13.50674 | 28714 ft | 406 kts | 131° |
| 2026-04-16 07:31 | 46.99252 | 13.53672 | 28180 ft | 403 kts | 131° |
| 2026-04-16 07:31 | 46.97336 | 13.56638 | 27636 ft | 399 kts | 131° |
| 2026-04-16 07:31 | 46.95440 | 13.59572 | 27129 ft | 394 kts | 131° |
| 2026-04-16 07:32 | 46.93569 | 13.62471 | 26597 ft | 390 kts | 132° |
| 2026-04-16 07:32 | 46.91712 | 13.65336 | 26083 ft | 387 kts | 132° |
| 2026-04-16 07:32 | 46.89867 | 13.68186 | 25573 ft | 384 kts | 132° |
| 2026-04-16 07:32 | 46.88062 | 13.70969 | 25067 ft | 381 kts | 132° |
| 2026-04-16 07:33 | 46.86246 | 13.73766 | 24560 ft | 378 kts | 132° |
| 2026-04-16 07:33 | 46.84440 | 13.76542 | 24062 ft | 375 kts | 133° |
| 2026-04-16 07:33 | 46.82654 | 13.79286 | 23593 ft | 371 kts | 133° |
| 2026-04-16 07:33 | 46.80874 | 13.82021 | 23060 ft | 370 kts | 133° |
| 2026-04-16 07:34 | 46.79111 | 13.84727 | 22587 ft | 367 kts | 133° |
| 2026-04-16 07:34 | 46.77361 | 13.87407 | 22088 ft | 363 kts | 133° |
| 2026-04-16 07:34 | 46.75626 | 13.90064 | 21626 ft | 359 kts | 133° |
| 2026-04-16 07:34 | 46.73912 | 13.92686 | 21155 ft | 355 kts | 133° |
| 2026-04-16 07:35 | 46.72207 | 13.95297 | 20669 ft | 353 kts | 134° |
| 2026-04-16 07:35 | 46.70516 | 13.97877 | 20220 ft | 349 kts | 134° |
| 2026-04-16 07:35 | 46.68844 | 14.00425 | 19723 ft | 349 kts | 134° |
| 2026-04-16 07:35 | 46.67174 | 14.02970 | 19308 ft | 345 kts | 134° |
| 2026-04-16 07:36 | 46.65520 | 14.05486 | 18838 ft | 343 kts | 134° |
| 2026-04-16 07:36 | 46.63873 | 14.07990 | 18364 ft | 341 kts | 135° |
| 2026-04-16 07:36 | 46.62262 | 14.10439 | 17908 ft | 338 kts | 135° |
| 2026-04-16 07:36 | 46.60640 | 14.12901 | 17462 ft | 335 kts | 135° |
| 2026-04-16 07:37 | 46.58989 | 14.15261 | 17017 ft | 332 kts | 143° |
| 2026-04-16 07:37 | 46.57045 | 14.17032 | 16593 ft | 327 kts | 153° |
| 2026-04-16 07:37 | 46.55035 | 14.18592 | 16136 ft | 327 kts | 153° |
| 2026-04-16 07:37 | 46.53033 | 14.20139 | 15702 ft | 325 kts | 153° |
| 2026-04-16 07:38 | 46.51050 | 14.21695 | 15270 ft | 323 kts | 153° |
| 2026-04-16 07:38 | 46.49087 | 14.23247 | 14846 ft | 320 kts | 153° |
| 2026-04-16 07:38 | 46.47139 | 14.24794 | 14424 ft | 318 kts | 152° |
| 2026-04-16 07:38 | 46.45227 | 14.26316 | 14009 ft | 317 kts | 153° |
| 2026-04-16 07:39 | 46.43266 | 14.27843 | 13593 ft | 315 kts | 153° |
| 2026-04-16 07:39 | 46.41362 | 14.29315 | 13159 ft | 313 kts | 153° |
| 2026-04-16 07:39 | 46.39462 | 14.30799 | 12739 ft | 307 kts | 153° |
| 2026-04-16 07:39 | 46.37595 | 14.32253 | 12334 ft | 303 kts | 153° |
| 2026-04-16 07:40 | 46.35745 | 14.33684 | 11940 ft | 298 kts | 153° |
| 2026-04-16 07:40 | 46.33923 | 14.35097 | 11543 ft | 296 kts | 153° |
| 2026-04-16 07:40 | 46.32112 | 14.36496 | 11142 ft | 294 kts | 153° |
| 2026-04-16 07:40 | 46.30308 | 14.37887 | 10756 ft | 293 kts | 153° |
| 2026-04-16 07:41 | 46.28507 | 14.39275 | 10353 ft | 294 kts | 153° |
| 2026-04-16 07:41 | 46.26703 | 14.40665 | 10004 ft | 292 kts | 152° |
| 2026-04-16 07:41 | 46.24904 | 14.42050 | 9574 ft | 293 kts | 152° |
| 2026-04-16 07:41 | 46.23141 | 14.43426 | 9210 ft | 291 kts | 148° |
| 2026-04-16 07:42 | 46.21542 | 14.45211 | 8828 ft | 291 kts | 138° |
| 2026-04-16 07:42 | 46.20049 | 14.47151 | 8430 ft | 286 kts | 138° |
| 2026-04-16 07:42 | 46.18577 | 14.49003 | 8047 ft | 275 kts | 139° |
| 2026-04-16 07:42 | 46.17141 | 14.50746 | 7699 ft | 264 kts | 140° |
| 2026-04-16 07:43 | 46.15741 | 14.52397 | 7356 ft | 255 kts | 141° |
| 2026-04-16 07:43 | 46.14376 | 14.53973 | 7021 ft | 248 kts | 140° |
| 2026-04-16 07:43 | 46.13051 | 14.55502 | 6686 ft | 241 kts | 141° |
| 2026-04-16 07:43 | 46.11759 | 14.56982 | 6386 ft | 233 kts | 140° |
| 2026-04-16 07:44 | 46.10502 | 14.58418 | 6071 ft | 229 kts | 140° |
| 2026-04-16 07:44 | 46.09269 | 14.59834 | 5785 ft | 225 kts | 140° |
| 2026-04-16 07:44 | 46.08043 | 14.61224 | 5487 ft | 222 kts | 141° |
| 2026-04-16 07:44 | 46.06840 | 14.62584 | 5184 ft | 218 kts | 141° |
| 2026-04-16 07:45 | 46.05696 | 14.64032 | 4686 ft | 220 kts | 126° |
| 2026-04-16 07:45 | 46.05153 | 14.65993 | 4526 ft | 207 kts | 94° |
| 2026-04-16 07:45 | 46.05326 | 14.67994 | 4442 ft | 207 kts | 67° |
| 2026-04-16 07:45 | 46.06119 | 14.69734 | 4408 ft | 211 kts | 46° |
| 2026-04-16 07:46 | 46.07280 | 14.71021 | 4387 ft | 213 kts | 27° |
| 2026-04-16 07:46 | 46.08715 | 14.71464 | 4320 ft | 213 kts | 356° |
| 2026-04-16 07:46 | 46.10103 | 14.70787 | 4308 ft | 213 kts | 326° |
| 2026-04-16 07:46 | 46.10967 | 14.69142 | 4565 ft | 203 kts | 286° |
| 2026-04-16 07:47 | 46.11395 | 14.67197 | 5049 ft | 218 kts | 297° |
| 2026-04-16 07:47 | 46.12324 | 14.65313 | 4297 ft | 243 kts | 312° |
| 2026-04-16 07:47 | 46.13389 | 14.63475 | 3920 ft | 231 kts | 306° |
| 2026-04-16 07:47 | 46.14258 | 14.61605 | 3612 ft | 221 kts | 304° |
| 2026-04-16 07:48 | 46.15132 | 14.59872 | 3287 ft | 206 kts | 308° |
| 2026-04-16 07:48 | 46.15964 | 14.58321 | 3060 ft | 184 kts | 308° |
| 2026-04-16 07:48 | 46.16681 | 14.56902 | 2811 ft | 167 kts | 307° |
| 2026-04-16 07:48 | 46.17340 | 14.55600 | 2582 ft | 154 kts | 307° |
| 2026-04-16 07:49 | 46.17952 | 14.54384 | 2327 ft | 147 kts | 305° |
| 2026-04-16 07:49 | 46.18530 | 14.53219 | 2079 ft | 139 kts | 308° |
| 2026-04-16 07:49 | 46.19093 | 14.52128 | 1882 ft | 134 kts | 308° |
| 2026-04-16 07:49 | 46.19635 | 14.51081 | 1782 ft | 133 kts | 307° |
| 2026-04-16 07:50 | 46.20187 | 14.49983 | 1650 ft | 135 kts | 306° |
| 2026-04-16 07:50 | 46.20751 | 14.48901 | 1478 ft | 135 kts | 308° |
| 2026-04-16 07:50 | 46.21315 | 14.47810 | 1303 ft | 136 kts | 307° |
| 2026-04-16 07:50 | 46.21865 | 14.46737 | 1224 ft | 121 kts | 307° |
| 2026-04-16 07:51 | 46.22284 | 14.45928 | 1241 ft | 83 kts | 306° |
| 2026-04-16 07:51 | 46.22557 | 14.45449 | 1248 ft | 45 kts | 324° |
| 2026-04-16 07:51 | 46.22715 | 14.45343 | 1261 ft | 15 kts | 343° |
| 2026-04-16 07:51 | 46.22791 | 14.45320 | 1257 ft | 0 kts | 349° |
| 2026-04-16 07:52 | 46.22797 | 14.45318 | 1257 ft | 2 kts | 349° |
| 2026-04-16 07:52 | 46.22831 | 14.45315 | 1257 ft | 7 kts | 7° |
| 2026-04-16 07:52 | 46.22880 | 14.45354 | 1266 ft | 9 kts | 35° |
| 2026-04-16 07:52 | 46.22932 | 14.45405 | 1257 ft | 8 kts | 24° |
| 2026-04-16 07:53 | 46.22955 | 14.45397 | 1257 ft | 0 kts | 328° |
| 2026-04-16 07:53 | 46.22957 | 14.45395 | 1262 ft | 1 kts | 328° |
| 2026-04-16 07:53 | 46.22978 | 14.45379 | 1260 ft | 5 kts | 353° |
| 2026-04-16 07:53 | 46.23014 | 14.45406 | 1257 ft | 6 kts | 36° |
| 2026-04-16 07:54 | 46.23028 | 14.45421 | 1260 ft | 0 kts | 36° |